Time;durP1;ratioP1;P1;durP2;ratioP2;P2;SDS_P1;SDS_P2;PMS_P1;PMS_P2;Temp;Humidity;BMP_temperature;BMP_pressure;BME280_temperature;BME280_humidity;BME280_pressure;Samples;Min_cycle;Max_cycle;Signal;HPM_P1;HPM_P2
2024/02/09 00:01:49;;;;;;;0.00;0.00;;;;;;;9.90;100.00;96490.81;6286480;22;20028;-74
2024/02/09 00:04:19;;;;;;;0.00;0.00;;;;;;;9.91;100.00;96486.94;6282379;22;19998;-74
2024/02/09 00:06:45;;;;;;;0.00;0.00;;;;;;;9.92;100.00;96504.91;6287109;22;20037;-74
2024/02/09 00:09:12;;;;;;;0.00;0.00;;;;;;;9.98;100.00;96502.69;6281545;22;20561;-76
2024/02/09 00:11:41;;;;;;;0.00;0.00;;;;;;;9.87;100.00;96510.63;6339536;22;20030;-74
2024/02/09 00:14:06;;;;;;;0.00;0.00;;;;;;;9.81;100.00;96488.28;6257694;22;20011;-74
2024/02/09 00:16:32;;;;;;;0.00;0.00;;;;;;;9.88;100.00;96499.34;6310493;22;20071;-74
2024/02/09 00:19:00;;;;;;;0.00;0.00;;;;;;;9.81;100.00;96482.81;6309438;22;20006;-73
2024/02/09 00:21:31;;;;;;;0.00;0.00;;;;;;;9.72;100.00;96479.50;6308675;22;20473;-73
2024/02/09 00:24:01;;;;;;;0.00;0.00;;;;;;;9.64;100.00;96477.78;6339983;22;19995;-76
2024/02/09 00:26:27;;;;;;;0.00;0.00;;;;;;;9.67;100.00;96482.53;6314028;22;20007;-75
2024/02/09 00:29:05;;;;;;;;;;;;;;;;;;;;;
2024/02/09 00:31:45;;;;;;;0.00;0.00;;;;;;;9.58;100.00;96448.06;6338765;22;20437;-76
2024/02/09 00:34:17;;;;;;;0.00;0.00;;;;;;;9.50;100.00;96435.41;6313722;22;20002;-77
2024/02/09 00:36:45;;;;;;;0.00;0.00;;;;;;;9.67;100.00;96450.59;6314094;22;20022;-75
2024/02/09 00:39:33;;;;;;;0.00;0.00;;;;;;;9.91;100.00;96470.56;6340209;22;20006;-75
2024/02/09 00:42:20;;;;;;;0.00;0.00;;;;;;;9.71;100.00;96445.19;6311178;22;20007;-75
2024/02/09 00:44:53;;;;;;;0.00;0.00;;;;;;;9.95;100.00;96477.66;6314611;22;20017;-75
2024/02/09 00:47:18;;;;;;;0.00;0.00;;;;;;;9.83;100.00;96447.81;6287473;22;20022;-74
2024/02/09 00:50:05;;;;;;;0.00;0.00;;;;;;;9.98;100.00;96476.16;6313669;22;20010;-75
2024/02/09 00:52:30;;;;;;;0.10;0.10;;;;;;;9.78;100.00;96428.97;6313506;22;19999;-75
2024/02/09 00:54:56;;;;;;;0.00;0.00;;;;;;;9.86;100.00;96438.91;6311342;22;20102;-75
2024/02/09 00:57:29;;;;;;;0.00;0.00;;;;;;;9.87;100.00;96447.84;6307362;22;20056;-74
2024/02/09 01:00:03;;;;;;;0.10;0.10;;;;;;;9.95;100.00;96455.84;6342615;22;20010;-76
2024/02/09 01:02:29;;;;;;;0.00;0.00;;;;;;;9.79;100.00;96446.94;6287449;22;20026;-76
2024/02/09 01:04:57;;;;;;;0.00;0.00;;;;;;;9.91;100.00;96468.63;6288932;22;20056;-74
2024/02/09 01:07:40;;;;;;;0.00;0.00;;;;;;;9.61;100.00;96425.53;6312642;22;20681;-75
2024/02/09 01:10:06;;;;;;;0.00;0.00;;;;;;;9.78;100.00;96457.06;6314382;22;20006;-74
2024/02/09 02:45:59;;;;;;;0.00;0.00;;;;;;;9.68;100.00;96380.44;6310270;22;20015;-74
2024/02/09 03:04:54;;;;;;;0.00;0.00;;;;;;;9.36;100.00;96366.94;6313912;22;20337;-74
2024/02/09 03:07:20;;;;;;;0.00;0.00;;;;;;;9.32;100.00;96374.25;6283519;22;20007;-73
2024/02/09 03:09:45;;;;;;;0.00;0.00;;;;;;;9.31;100.00;96372.66;6286551;22;20021;-74
2024/02/09 03:12:13;;;;;;;0.00;0.00;;;;;;;9.28;100.00;96362.47;6258149;22;20026;-74
2024/02/09 03:14:44;;;;;;;0.00;0.00;;;;;;;9.09;100.00;96339.50;6309611;22;20007;-75
2024/02/09 03:17:09;;;;;;;0.00;0.00;;;;;;;9.20;100.00;96358.78;6313163;22;19991;-73
2024/02/09 03:19:36;;;;;;;0.00;0.00;;;;;;;9.12;100.00;96344.22;6311283;22;20046;-76
2024/02/09 03:22:02;;;;;;;0.00;0.00;;;;;;;9.18;100.00;96353.69;6312982;22;20066;-74
2024/02/09 03:24:27;;;;;;;0.00;0.00;;;;;;;9.14;100.00;96330.25;6284339;22;20085;-75
2024/02/09 03:26:53;;;;;;;0.00;0.00;;;;;;;9.16;100.00;96339.66;6284908;22;20030;-74
2024/02/09 03:29:18;;;;;;;0.00;0.00;;;;;;;9.15;100.00;96332.63;6284294;22;20010;-74
2024/02/09 03:31:44;;;;;;;0.00;0.00;;;;;;;9.01;100.00;96327.66;6261565;22;20011;-75
2024/02/09 03:34:09;;;;;;;0.00;0.00;;;;;;;9.00;100.00;96314.38;6257881;22;20061;-75
2024/02/09 03:36:35;;;;;;;0.10;0.10;;;;;;;9.15;100.00;96327.16;6261342;22;20044;-73
2024/02/09 03:39:03;;;;;;;0.00;0.00;;;;;;;9.14;100.00;96320.16;6311162;22;19990;-76
2024/02/09 03:41:28;;;;;;;0.00;0.00;;;;;;;9.09;100.00;96317.69;6339434;22;20010;-74
2024/02/09 03:43:54;;;;;;;0.00;0.00;;;;;;;9.02;100.00;96309.34;6259383;22;20140;-74
2024/02/09 03:46:26;;;;;;;0.00;0.00;;;;;;;9.05;100.00;96314.09;6311310;22;20003;-74
2024/02/09 03:48:53;;;;;;;0.00;0.00;;;;;;;9.10;100.00;96305.66;6337895;22;20003;-74
2024/02/09 03:51:20;;;;;;;0.00;0.00;;;;;;;9.11;100.00;96318.13;6339751;22;20009;-74
2024/02/09 03:53:45;;;;;;;0.00;0.00;;;;;;;9.08;100.00;96294.31;6310978;22;20485;-74
2024/02/09 03:56:10;;;;;;;0.00;0.00;;;;;;;9.13;100.00;96315.84;6311232;22;20056;-74
2024/02/09 03:58:36;;;;;;;0.00;0.00;;;;;;;9.17;100.00;96333.06;6286993;22;20039;-74
2024/02/09 04:01:10;;;;;;;0.00;0.00;;;;;;;9.16;100.00;96326.03;6311010;22;20003;-74
2024/02/09 04:03:36;;;;;;;;;;;;;;;9.15;100.00;96321.72;6313899;22;20003;-74
2024/02/09 04:06:02;;;;;;;0.00;0.00;;;;;;;9.14;100.00;96336.50;6308970;22;19917;-74
2024/02/09 04:08:28;;;;;;;0.00;0.00;;;;;;;9.05;100.00;96308.66;6262179;22;20006;-74
2024/02/09 04:10:53;;;;;;;0.00;0.00;;;;;;;9.03;100.00;96313.66;6284908;22;20018;-74
2024/02/09 04:13:20;;;;;;;0.00;0.00;;;;;;;9.00;100.00;96307.00;6313524;22;20011;-75
2024/02/09 04:15:46;;;;;;;0.10;0.10;;;;;;;9.03;100.00;96319.13;6260971;22;20064;-74
2024/02/09 04:18:12;;;;;;;0.00;0.00;;;;;;;9.02;100.00;96312.09;6282564;22;20007;-75
2024/02/09 04:20:40;;;;;;;0.00;0.00;;;;;;;8.90;100.00;96302.88;6287261;22;20095;-75
2024/02/09 04:23:10;;;;;;;0.00;0.00;;;;;;;9.02;100.00;96318.34;6306601;22;19995;-76
2024/02/09 04:25:40;;;;;;;0.00;0.00;;;;;;;8.87;100.00;96298.16;6286868;22;20007;-76
2024/02/09 04:28:17;;;;;;;;;;;;;;;;;;;;;
2024/02/09 04:31:03;;;;;;;0.00;0.00;;;;;;;9.02;100.00;96320.25;6340067;22;20065;-75
2024/02/09 04:33:59;;;;;;;0.00;0.00;;;;;;;8.82;100.00;96298.44;6287972;22;20007;-76
2024/02/09 04:36:30;;;;;;;0.10;0.10;;;;;;;8.87;100.00;96300.88;6282819;22;20011;-75
2024/02/09 04:39:06;;;;;;;;;;;;;;;;;;;;;
2024/02/09 04:41:43;;;;;;;0.10;0.10;;;;;;;8.93;100.00;96293.22;6337283;22;20453;-75
2024/02/09 04:44:25;;;;;;;0.00;0.00;;;;;;;9.00;100.00;96311.66;6308250;22;20205;-75
2024/02/09 04:46:55;;;;;;;0.00;0.00;;;;;;;8.83;100.00;96297.28;6288815;22;20011;-75
2024/02/09 04:49:21;;;;;;;0.00;0.00;;;;;;;8.86;100.00;96299.31;6309926;22;20019;-75
2024/02/09 04:52:11;;;;;;;0.00;0.00;;;;;;;8.90;100.00;96311.06;6309743;22;20010;-75
2024/02/09 04:54:55;;;;;;;0.00;0.00;;;;;;;8.78;100.00;96288.63;6289876;22;20039;-74
2024/02/09 04:57:21;;;;;;;0.00;0.00;;;;;;;8.83;100.00;96302.72;6288251;22;20003;-74
2024/02/09 04:59:47;;;;;;;0.00;0.00;;;;;;;8.97;100.00;96315.88;6283772;22;20070;-76
2024/02/09 05:02:14;;;;;;;0.00;0.00;;;;;;;8.96;100.00;96308.06;6339746;22;20002;-74
2024/02/09 05:04:40;;;;;;;0.00;0.00;;;;;;;8.85;100.00;96297.72;6256667;22;20036;-74
2024/02/09 05:07:05;;;;;;;0.00;0.00;;;;;;;8.91;100.00;96298.25;6282905;22;20019;-74
2024/02/09 05:09:31;;;;;;;0.00;0.00;;;;;;;9.09;100.00;96323.13;6281547;22;20233;-75
2024/02/09 05:11:58;;;;;;;0.10;0.10;;;;;;;9.03;100.00;96313.66;6283212;22;20003;-75
2024/02/09 05:14:24;;;;;;;0.00;0.00;;;;;;;9.02;100.00;96295.72;6308178;22;20017;-75
2024/02/09 05:16:51;;;;;;;0.00;0.00;;;;;;;9.08;100.00;96314.19;6310498;22;20345;-77
2024/02/09 05:19:31;;;;;;;0.00;0.00;;;;;;;9.01;100.00;96296.88;6281639;22;20037;-76
2024/02/09 05:21:57;;;;;;;0.00;0.00;;;;;;;9.14;100.00;96324.78;6287049;22;20059;-74
2024/02/09 05:24:23;;;;;;;0.00;0.00;;;;;;;9.15;100.00;96332.63;6342531;22;20065;-75
2024/02/09 05:26:49;;;;;;;0.00;0.00;;;;;;;9.10;100.00;96319.28;6313252;22;20002;-75
2024/02/09 05:29:15;;;;;;;0.00;0.00;;;;;;;9.24;100.00;96349.56;6342502;22;20010;-75
2024/02/09 05:31:41;;;;;;;0.00;0.00;;;;;;;9.05;100.00;96314.91;6343249;22;20472;-74
2024/02/09 05:34:26;;;;;;;;;;;;;;;;;;;;;
2024/02/09 05:37:04;;;;;;;;;;;;;;;;;;;;;
2024/02/09 05:39:29;;;;;;;0.00;0.00;;;;;;;9.00;100.00;96308.94;6340663;22;19981;-74
2024/02/09 05:42:04;;;;;;;0.00;0.00;;;;;;;9.05;100.00;96325.00;6307289;22;20120;-74
2024/02/09 05:44:29;;;;;;;0.00;0.00;;;;;;;9.22;100.00;96342.88;6338335;22;20722;-74
2024/02/09 05:46:55;;;;;;;0.00;0.00;;;;;;;9.12;100.00;96327.09;6285950;22;20037;-75
2024/02/09 05:49:20;;;;;;;0.00;0.00;;;;;;;9.08;100.00;96327.81;6263439;22;20007;-75
2024/02/09 05:51:49;;;;;;;0.00;0.00;;;;;;;9.04;100.00;96315.25;6311102;22;20010;-75
2024/02/09 05:54:33;;;;;;;0.00;0.00;;;;;;;9.01;100.00;96310.50;6288488;22;20052;-74
2024/02/09 05:56:59;;;;;;;0.00;0.00;;;;;;;9.06;100.00;96319.19;6312985;22;20020;-73
2024/02/09 05:59:25;;;;;;;0.00;0.00;;;;;;;9.24;100.00;96341.41;6340521;22;20003;-74
2024/02/09 06:02:00;;;;;;;0.00;0.00;;;;;;;9.25;100.00;96326.59;6315237;22;20067;-72
2024/02/09 06:04:26;;;;;;;0.00;0.00;;;;;;;9.09;100.00;96329.38;6285597;22;20002;-74
2024/02/09 06:07:18;;;;;;;0.00;0.00;;;;;;;9.34;100.00;96361.81;6314364;22;20412;-74
2024/02/09 06:09:46;;;;;;;0.00;0.00;;;;;;;9.31;100.00;96353.59;6309369;22;20024;-73
2024/02/09 06:12:39;;;;;;;0.00;0.00;;;;;;;9.21;100.00;96336.66;6286663;22;20029;-73
2024/02/09 06:15:10;;;;;;;0.00;0.00;;;;;;;9.29;100.00;96344.97;6315415;22;20314;-75
2024/02/09 06:17:46;;;;;;;0.00;0.00;;;;;;;9.38;100.00;96356.47;6290326;22;20007;-74
2024/02/09 06:20:22;;;;;;;0.00;0.00;;;;;;;9.21;100.00;96322.22;6290874;22;20007;-75
2024/02/09 06:26:32;;;;;;;0.00;0.00;;;;;;;9.13;100.00;96345.81;6287540;22;20007;-73
2024/02/09 06:29:07;;;;;;;0.00;0.00;;;;;;;9.15;100.00;96343.50;6338338;22;20048;-75
2024/02/09 06:31:40;;;;;;;0.00;0.00;;;;;;;9.05;100.00;96338.63;6312423;22;20547;-74
2024/02/09 06:34:05;;;;;;;0.00;0.00;;;;;;;9.07;100.00;96347.25;6340798;22;20002;-74
2024/02/09 06:36:31;;;;;;;0.00;0.00;;;;;;;9.12;100.00;96355.13;6313210;22;20002;-74
2024/02/09 06:38:59;;;;;;;0.00;0.00;;;;;;;9.20;100.00;96375.97;6288000;22;20090;-75
2024/02/09 06:41:29;;;;;;;0.00;0.00;;;;;;;9.18;100.00;96386.41;6288824;22;19990;-73
2024/02/09 06:43:54;;;;;;;0.00;0.00;;;;;;;9.08;100.00;96359.69;6287870;22;20013;-74
2024/02/09 06:46:20;;;;;;;0.00;0.00;;;;;;;9.01;100.00;96351.38;6288918;22;20101;-74
2024/02/09 06:48:58;;;;;;;0.00;0.00;;;;;;;9.15;100.00;96387.13;6262393;22;19991;-73
2024/02/09 06:51:28;;;;;;;0.00;0.00;;;;;;;8.98;100.00;96343.91;6314788;22;20029;-73
2024/02/09 06:53:55;;;;;;;0.00;0.00;;;;;;;8.85;100.00;96356.88;6315706;22;20056;-73
2024/02/09 06:56:21;;;;;;;0.00;0.00;;;;;;;8.93;100.00;96374.94;6343028;22;20017;-74
2024/02/09 06:58:46;;;;;;;0.00;0.00;;;;;;;8.96;100.00;96387.06;6343006;22;20439;-74
2024/02/09 07:01:12;;;;;;;0.00;0.00;;;;;;;8.96;100.00;96384.34;6288443;22;20009;-73
2024/02/09 07:03:41;;;;;;;0.00;0.00;;;;;;;9.01;100.00;96387.59;6314363;22;20440;-73
2024/02/09 07:06:07;;;;;;;0.10;0.10;;;;;;;8.87;100.00;96377.16;6340094;22;20018;-72
2024/02/09 07:08:55;;;;;;;0.00;0.00;;;;;;;8.82;100.00;96374.72;6311917;22;20258;-72
2024/02/09 07:11:21;;;;;;;0.03;0.03;;;;;;;8.90;100.00;96406.41;6310757;22;20003;-75
2024/02/09 07:13:52;;;;;;;0.00;0.00;;;;;;;8.88;100.00;96394.31;6338593;22;20483;-73
2024/02/09 07:16:30;;;;;;;0.00;0.00;;;;;;;8.77;100.00;96387.81;6311927;22;20009;-75
2024/02/09 07:18:56;;;;;;;0.00;0.00;;;;;;;8.77;100.00;96396.75;6284475;22;20029;-75
2024/02/09 07:21:22;;;;;;;0.00;0.00;;;;;;;8.91;100.00;96421.63;6308260;22;20007;-75
2024/02/09 07:23:50;;;;;;;0.00;0.00;;;;;;;9.00;100.00;96435.06;6285212;22;19998;-74
2024/02/09 07:26:22;;;;;;;0.00;0.00;;;;;;;8.97;100.00;96433.03;6311701;22;20010;-74
2024/02/09 07:29:06;;;;;;;;;;;;;;;;;;;;;
2024/02/09 07:31:35;;;;;;;0.10;0.10;;;;;;;8.94;100.00;96411.97;6339549;22;20386;-74
2024/02/09 07:34:14;;;;;;;0.00;0.00;;;;;;;9.05;100.00;96423.09;6286839;22;20003;-74
2024/02/09 07:36:42;;;;;;;0.00;0.00;;;;;;;8.86;100.00;96391.94;6285161;22;20090;-75
2024/02/09 07:39:19;;;;;;;;;;;;;;;;;;;;;
2024/02/09 07:41:46;;;;;;;0.00;0.00;;;;;;;9.25;100.00;96423.94;6311434;22;20352;-73
2024/02/09 07:44:12;;;;;;;0.00;0.00;;;;;;;9.22;100.00;96422.72;6309681;22;20083;-74
2024/02/09 07:46:38;;;;;;;0.00;0.00;;;;;;;9.29;100.00;96445.81;6312194;22;20002;-74
2024/02/09 07:49:03;;;;;;;0.00;0.00;;;;;;;9.20;100.00;96443.28;6311532;22;20007;-73
2024/02/09 07:51:31;;;;;;;0.00;0.00;;;;;;;9.24;100.00;96449.63;6260751;22;20452;-73
2024/02/09 07:54:05;;;;;;;0.00;0.00;;;;;;;9.19;100.00;96453.41;6283994;22;20018;-73
2024/02/09 07:56:33;;;;;;;0.00;0.00;;;;;;;9.03;100.00;96447.19;6285946;22;20003;-75
2024/02/09 07:58:59;;;;;;;0.10;0.10;;;;;;;8.90;100.00;96425.47;6337354;22;19991;-74
2024/02/09 08:01:24;;;;;;;0.00;0.00;;;;;;;9.08;100.00;96452.38;6284632;22;20024;-73
2024/02/09 08:03:53;;;;;;;0.00;0.00;;;;;;;9.03;100.00;96461.59;6283406;22;20509;-74
2024/02/09 08:06:33;;;;;;;0.00;0.00;;;;;;;8.99;100.00;96468.13;6340004;22;20035;-72
2024/02/09 08:09:01;;;;;;;0.00;0.00;;;;;;;8.89;100.00;96440.25;6307848;22;20456;-73
2024/02/09 08:11:29;;;;;;;0.00;0.00;;;;;;;8.95;100.00;96448.16;6284229;22;20011;-73
2024/02/09 08:14:01;;;;;;;0.00;0.00;;;;;;;8.95;100.00;96453.59;6280096;22;20006;-74
2024/02/09 08:16:29;;;;;;;0.00;0.00;;;;;;;8.89;100.00;96440.25;6283764;22;20022;-74
2024/02/09 08:19:01;;;;;;;0.00;0.00;;;;;;;9.00;100.00;96458.81;6280666;22;20090;-74
2024/02/09 08:21:27;;;;;;;0.00;0.00;;;;;;;9.01;100.00;96463.91;6305586;22;20068;-74
2024/02/09 08:23:52;;;;;;;0.00;0.00;;;;;;;8.94;100.00;96444.66;6310312;22;20007;-74
2024/02/09 08:26:18;;;;;;;0.00;0.00;;;;;;;9.05;100.00;96463.97;6308390;22;20007;-74
2024/02/09 08:28:44;;;;;;;0.10;0.10;;;;;;;8.96;100.00;96447.03;6311836;22;20006;-74
2024/02/09 08:31:26;;;;;;;0.00;0.00;;;;;;;8.98;100.00;96447.44;6281517;22;20015;-77
2024/02/09 08:33:52;;;;;;;0.00;0.00;;;;;;;9.06;100.00;96481.91;6289128;22;20011;-77
2024/02/09 08:36:21;;;;;;;0.10;0.10;;;;;;;9.06;100.00;96457.38;6285232;22;20013;-78
2024/02/09 08:38:50;;;;;;;0.00;0.00;;;;;;;9.01;100.00;96457.63;6261724;22;20093;-76
2024/02/09 08:41:18;;;;;;;0.00;0.00;;;;;;;9.02;100.00;96448.34;6350684;22;20054;-75
2024/02/09 08:43:44;;;;;;;0.00;0.00;;;;;;;9.11;100.00;96465.28;6348143;22;20013;-76
2024/02/09 08:46:09;;;;;;;0.00;0.00;;;;;;;9.05;100.00;96469.41;6323196;22;20023;-75
2024/02/09 08:48:35;;;;;;;0.00;0.00;;;;;;;9.00;100.00;96466.97;6320404;22;20040;-76
2024/02/09 08:51:03;;;;;;;0.00;0.00;;;;;;;8.96;100.00;96447.03;6343212;22;19999;-75
2024/02/09 08:53:28;;;;;;;0.00;0.00;;;;;;;9.14;100.00;96486.41;6286481;22;20017;-73
2024/02/09 08:55:54;;;;;;;0.00;0.00;;;;;;;9.02;100.00;96459.22;6288772;22;20359;-75
2024/02/09 08:58:25;;;;;;;0.00;0.00;;;;;;;8.99;100.00;96459.94;6314128;22;20057;-74
2024/02/09 09:00:50;;;;;;;0.10;0.10;;;;;;;9.18;100.00;96484.53;6310564;22;20017;-74
2024/02/09 09:03:16;;;;;;;0.00;0.00;;;;;;;9.22;100.00;96487.34;6342507;22;20090;-74
2024/02/09 09:05:42;;;;;;;0.00;0.00;;;;;;;9.22;100.00;96474.50;6284969;22;20085;-74
2024/02/09 09:08:09;;;;;;;0.00;0.00;;;;;;;9.28;100.00;96493.34;6312821;22;20054;-73
2024/02/09 09:10:38;;;;;;;0.00;0.00;;;;;;;9.17;100.00;96466.63;6313065;22;20067;-75
2024/02/09 09:13:10;;;;;;;0.00;0.00;;;;;;;9.34;100.00;96497.38;6313868;22;20030;-74
2024/02/09 09:15:38;;;;;;;0.00;0.00;;;;;;;9.26;100.00;96467.22;6312098;22;20002;-75
2024/02/09 09:18:06;;;;;;;0.00;0.00;;;;;;;9.48;100.00;96486.78;6287921;22;20010;-74
2024/02/09 09:20:35;;;;;;;0.00;0.00;;;;;;;9.43;100.00;96457.06;6263279;22;20034;-74
2024/02/09 09:23:04;;;;;;;0.10;0.10;;;;;;;9.75;100.00;96498.72;6310293;22;19995;-75
2024/02/09 09:25:30;;;;;;;0.00;0.00;;;;;;;9.75;100.00;96506.88;6287901;22;20010;-74
2024/02/09 09:28:01;;;;;;;0.00;0.00;;;;;;;9.60;100.00;96510.44;6335355;22;20002;-74
2024/02/09 09:30:26;;;;;;;0.00;0.00;;;;;;;9.65;100.00;96501.19;6340803;22;20010;-74
2024/02/09 09:32:52;;;;;;;0.00;0.00;;;;;;;9.64;100.00;96502.31;6336171;22;20007;-73
2024/02/09 09:35:18;;;;;;;0.00;0.00;;;;;;;9.53;100.00;96521.97;6290032;22;20010;-73
2024/02/09 09:37:44;;;;;;;0.00;0.00;;;;;;;9.47;100.00;96553.38;6285330;22;20007;-74
2024/02/09 09:40:18;;;;;;;0.00;0.00;;;;;;;9.37;100.00;96516.53;6286325;22;20006;-75
2024/02/09 09:42:44;;;;;;;0.00;0.00;;;;;;;9.44;100.00;96513.19;6311912;22;20010;-74
2024/02/09 09:45:10;;;;;;;0.00;0.00;;;;;;;9.56;100.00;96517.75;6283686;22;20022;-73
2024/02/09 09:47:42;;;;;;;0.00;0.00;;;;;;;9.52;100.00;96534.03;6341424;22;20013;-77
2024/02/09 09:50:11;;;;;;;0.00;0.00;;;;;;;9.43;100.00;96525.22;6315311;22;20002;-77
2024/02/09 09:52:49;;;;;;;0.00;0.00;;;;;;;9.31;100.00;96519.88;6312059;22;20013;-74
2024/02/09 09:55:22;;;;;;;0.00;0.00;;;;;;;9.51;100.00;96535.16;6311210;22;20019;-76
2024/02/09 09:57:59;;;;;;;0.00;0.00;;;;;;;9.31;100.00;96504.31;6343344;22;19995;-74
2024/02/09 10:00:33;;;;;;;0.00;0.00;;;;;;;9.33;100.00;96523.03;6302010;22;20013;-75
2024/02/09 10:03:13;;;;;;;0.00;0.00;;;;;;;9.32;100.00;96510.56;6309865;22;19999;-73
2024/02/09 10:06:23;;;;;;;0.00;0.00;;;;;;;9.61;100.00;96551.00;6315520;22;20007;-74
2024/02/09 10:09:02;;;;;;;;;;;;;;;;;;;;;
2024/02/09 10:11:40;;;;;;;0.00;0.00;;;;;;;9.83;100.00;96545.22;6342683;22;20058;-77
2024/02/09 10:17:47;;;;;;;0.00;0.00;;;;;;;10.44;100.00;96521.94;6324308;22;20009;-74
2024/02/09 10:20:16;;;;;;;0.00;0.00;;;;;;;11.90;100.00;96524.78;6311577;22;20371;-74
2024/02/09 10:22:41;;;;;;;0.08;0.08;;;;;;;11.30;100.00;96550.84;6309876;22;20050;-73
2024/02/09 10:25:14;;;;;;;0.00;0.00;;;;;;;10.73;100.00;96541.63;6284504;22;20421;-74
2024/02/09 10:27:42;;;;;;;0.00;0.00;;;;;;;10.87;100.00;96582.13;6339171;22;20017;-74
2024/02/09 10:30:08;;;;;;;0.00;0.00;;;;;;;11.16;100.00;96564.28;6312624;22;20060;-73
2024/02/09 10:32:34;;;;;;;0.00;0.00;;;;;;;11.45;100.00;96559.31;6284277;22;20015;-74
2024/02/09 10:34:59;;;;;;;0.00;0.00;;;;;;;11.33;100.00;96574.75;6286285;22;20014;-74
2024/02/09 10:37:25;;;;;;;0.00;0.00;;;;;;;11.08;100.00;96573.50;6257404;22;20028;-74
2024/02/09 10:39:51;;;;;;;0.00;0.00;;;;;;;10.91;100.00;96578.28;6312317;22;20093;-74
2024/02/09 10:42:24;;;;;;;0.00;0.00;;;;;;;11.17;100.00;96576.81;6287939;22;20104;-72
2024/02/09 10:45:01;;;;;;;0.00;0.00;;;;;;;11.18;100.00;96578.38;6316819;22;20035;-72
2024/02/09 10:47:29;;;;;;;0.00;0.00;;;;;;;11.25;100.00;96605.84;6310235;22;20006;-73
2024/02/09 10:49:58;;;;;;;0.00;0.00;;;;;;;11.27;100.00;96565.25;6285506;22;20010;-72
2024/02/09 10:52:31;;;;;;;0.00;0.00;;;;;;;12.79;100.00;96575.59;6309559;22;20310;-73
2024/02/09 10:54:57;;;;;;;0.00;0.00;;;;;;;13.37;100.00;96569.56;6286758;22;20017;-72
2024/02/09 10:57:28;;;;;;;0.00;0.00;;;;;;;12.84;100.00;96572.53;6284222;22;20002;-73
2024/02/09 10:59:57;;;;;;;0.00;0.00;;;;;;;12.54;100.00;96579.66;6338043;22;20006;-72
2024/02/09 11:02:26;;;;;;;0.00;0.00;;;;;;;12.32;100.00;96583.25;6287002;22;20070;-72
2024/02/09 11:04:54;;;;;;;0.00;0.00;;;;;;;12.34;100.00;96595.44;6288422;22;20013;-73
2024/02/09 11:07:20;;;;;;;0.00;0.00;;;;;;;12.66;100.00;96588.78;6261874;22;20014;-73
2024/02/09 11:09:45;;;;;;;0.00;0.00;;;;;;;13.90;100.00;96584.91;6305799;22;20021;-71
2024/02/09 11:12:12;;;;;;;0.00;0.00;;;;;;;16.52;100.00;96589.38;6311049;22;20074;-73
2024/02/09 11:14:38;;;;;;;0.00;0.00;;;;;;;17.07;96.37;96578.94;6282064;22;20575;-72
2024/02/09 11:17:16;;;;;;;0.00;0.00;;;;;;;15.99;98.34;96568.22;6336128;22;19998;-73
2024/02/09 11:19:42;;;;;;;0.10;0.10;;;;;;;15.14;100.00;96598.84;6308621;22;20030;-73
2024/02/09 11:22:09;;;;;;;0.00;0.00;;;;;;;14.29;100.00;96605.53;6283132;22;20013;-71
2024/02/09 11:24:35;;;;;;;0.00;0.00;;;;;;;13.34;100.00;96580.47;6310650;22;20081;-74
2024/02/09 11:27:02;;;;;;;0.00;0.00;;;;;;;12.39;100.00;96570.44;6282769;22;20068;-73
2024/02/09 11:29:29;;;;;;;0.00;0.00;;;;;;;11.84;100.00;96581.00;6284380;22;20074;-73
2024/02/09 11:32:02;;;;;;;0.00;0.00;;;;;;;11.70;100.00;96601.50;6283443;22;20015;-73
2024/02/09 11:34:29;;;;;;;0.00;0.00;;;;;;;11.52;100.00;96592.22;6286521;22;19991;-71
2024/02/09 11:37:00;;;;;;;0.00;0.00;;;;;;;11.32;100.00;96584.09;6337830;22;19998;-73
2024/02/09 11:39:31;;;;;;;0.00;0.00;;;;;;;11.28;100.00;96593.38;6331900;22;20463;-75
2024/02/09 11:41:57;;;;;;;0.10;0.10;;;;;;;11.35;100.00;96582.56;6305663;22;20549;-75
2024/02/09 11:44:23;;;;;;;0.00;0.00;;;;;;;10.96;100.00;96583.44;6283223;22;20006;-74
2024/02/09 11:46:51;;;;;;;0.00;0.00;;;;;;;10.78;100.00;96579.59;6288391;22;20013;-74
2024/02/09 11:49:17;;;;;;;0.00;0.00;;;;;;;10.62;100.00;96607.78;6287121;22;20056;-73
2024/02/09 11:51:42;;;;;;;0.00;0.00;;;;;;;10.38;100.00;96592.47;6281257;22;20010;-72
2024/02/09 11:54:09;;;;;;;0.10;0.10;;;;;;;10.35;100.00;96582.25;6277737;22;20007;-72
2024/02/09 11:56:37;;;;;;;0.00;0.00;;;;;;;10.35;100.00;96573.28;6310758;22;19995;-73
2024/02/09 11:59:04;;;;;;;0.00;0.00;;;;;;;10.36;100.00;96583.06;6311162;22;20003;-73
2024/02/09 12:01:30;;;;;;;0.00;0.00;;;;;;;10.30;100.00;96577.06;6310229;22;20006;-74
2024/02/09 12:03:56;;;;;;;0.00;0.00;;;;;;;10.10;100.00;96574.31;6311196;22;20059;-73
2024/02/09 12:06:22;;;;;;;0.00;0.00;;;;;;;10.09;100.00;96578.19;6285206;22;20406;-73
2024/02/09 12:08:50;;;;;;;0.00;0.00;;;;;;;10.09;100.00;96596.47;6340288;22;20017;-73
2024/02/09 12:11:19;;;;;;;0.00;0.00;;;;;;;10.13;100.00;96575.50;6287449;22;20433;-73
2024/02/09 12:13:48;;;;;;;0.00;0.00;;;;;;;10.21;100.00;96558.16;6312021;22;20007;-75
2024/02/09 12:16:36;;;;;;;0.00;0.00;;;;;;;10.14;100.00;96545.13;6285327;22;19986;-75
2024/02/09 12:19:01;;;;;;;0.00;0.00;;;;;;;10.12;100.00;96541.19;6309262;22;20126;-73
2024/02/09 12:21:28;;;;;;;0.00;0.00;;;;;;;10.22;100.00;96548.81;6285725;22;20006;-74
2024/02/09 12:23:54;;;;;;;0.00;0.00;;;;;;;10.30;100.00;96552.47;6287767;22;20086;-73
2024/02/09 12:26:20;;;;;;;0.00;0.00;;;;;;;10.63;100.00;96584.78;6313366;22;20026;-74
2024/02/09 12:28:45;;;;;;;0.00;0.00;;;;;;;10.63;100.00;96560.19;6287117;22;20003;-73
2024/02/09 12:31:21;;;;;;;0.00;0.00;;;;;;;10.72;100.00;96572.81;6264543;22;20010;-75
2024/02/09 12:33:51;;;;;;;0.00;0.00;;;;;;;10.72;100.00;96570.91;6287641;22;20019;-74
2024/02/09 12:36:20;;;;;;;0.10;0.10;;;;;;;10.70;100.00;96573.19;6315614;22;20059;-73
2024/02/09 12:39:05;;;;;;;0.00;0.00;;;;;;;10.80;100.00;96556.22;6309728;22;20014;-74
2024/02/09 12:41:33;;;;;;;0.10;0.10;;;;;;;10.82;100.00;96558.59;6318916;22;20044;-74
2024/02/09 12:44:03;;;;;;;0.00;0.00;;;;;;;11.08;100.00;96562.56;6315250;22;20010;-74
2024/02/09 12:46:29;;;;;;;0.00;0.00;;;;;;;11.51;100.00;96558.59;6288585;22;20022;-74
2024/02/09 12:48:55;;;;;;;0.00;0.00;;;;;;;11.87;100.00;96553.69;6313810;22;20048;-75
2024/02/09 12:51:24;;;;;;;0.00;0.00;;;;;;;12.71;100.00;96561.81;6262598;22;20059;-73
2024/02/09 12:53:50;;;;;;;0.00;0.00;;;;;;;13.58;100.00;96557.19;6314177;22;20041;-74
2024/02/09 12:56:17;;;;;;;0.10;0.10;;;;;;;14.16;100.00;96574.84;6342048;22;20010;-74
2024/02/09 12:58:43;;;;;;;0.00;0.00;;;;;;;14.38;100.00;96581.22;6315137;22;20059;-74
2024/02/09 13:01:09;;;;;;;0.00;0.00;;;;;;;13.43;100.00;96573.56;6263293;22;20007;-75
2024/02/09 13:03:34;;;;;;;0.00;0.00;;;;;;;12.40;100.00;96604.13;6287430;22;20002;-75
2024/02/09 13:06:04;;;;;;;0.00;0.00;;;;;;;11.51;100.00;96568.78;6286434;22;20011;-73
2024/02/09 13:08:30;;;;;;;0.10;0.10;;;;;;;11.05;100.00;96564.06;6344454;22;20006;-77
2024/02/09 13:10:55;;;;;;;0.00;0.00;;;;;;;10.88;100.00;96568.09;6316562;22;20003;-74
2024/02/09 13:13:21;;;;;;;0.00;0.00;;;;;;;10.73;100.00;96564.31;6287788;22;20014;-75
2024/02/09 13:15:48;;;;;;;0.00;0.00;;;;;;;10.77;100.00;96569.81;6265487;22;20007;-74
2024/02/09 13:18:13;;;;;;;0.10;0.10;;;;;;;10.87;100.00;96563.75;6318014;22;20464;-74
2024/02/09 13:20:42;;;;;;;0.00;0.00;;;;;;;10.92;100.00;96559.94;6316793;22;20002;-74
2024/02/09 13:23:08;;;;;;;0.00;0.00;;;;;;;11.07;100.00;96544.56;6290722;22;20086;-74
2024/02/09 13:25:35;;;;;;;0.00;0.00;;;;;;;11.67;100.00;96538.53;6314935;22;20326;-74
2024/02/09 13:28:16;;;;;;;0.00;0.00;;;;;;;12.47;100.00;96534.91;6316495;22;20032;-75
2024/02/09 13:30:44;;;;;;;0.00;0.00;;;;;;;12.95;100.00;96561.69;6339759;22;20085;-75
2024/02/09 13:33:17;;;;;;;0.00;0.00;;;;;;;12.68;100.00;96545.34;6309698;22;20014;-74
2024/02/09 13:35:45;;;;;;;0.00;0.00;;;;;;;12.20;100.00;96533.03;6310310;22;20045;-75
2024/02/09 13:38:10;;;;;;;0.00;0.00;;;;;;;12.07;100.00;96530.91;6287052;22;20006;-74
2024/02/09 13:40:36;;;;;;;0.00;0.00;;;;;;;12.16;100.00;96556.84;6285982;22;20289;-73
2024/02/09 13:43:09;;;;;;;0.00;0.00;;;;;;;12.48;100.00;96541.97;6262240;22;20006;-75
2024/02/09 13:45:45;;;;;;;0.00;0.00;;;;;;;12.37;100.00;96548.13;6341092;22;20048;-75
2024/02/09 13:48:11;;;;;;;0.00;0.00;;;;;;;12.23;100.00;96517.81;6314827;22;20006;-73
2024/02/09 13:50:44;;;;;;;0.00;0.00;;;;;;;12.14;100.00;96561.13;6314524;22;20010;-75